createdAt,value
2018-07-21T00:01:40.358Z,9.20
2018-07-21T00:04:10.146Z,9.07
2018-07-21T00:06:39.858Z,9.80
2018-07-21T00:09:12.330Z,9.33
2018-07-21T00:11:43.093Z,10.23
2018-07-21T00:14:13.259Z,10.50
2018-07-21T00:16:43.063Z,10.10
2018-07-21T00:19:12.805Z,9.90
2018-07-21T00:21:42.648Z,10.03
2018-07-21T00:24:12.439Z,10.20
2018-07-21T00:26:47.396Z,10.83
2018-07-21T00:29:19.168Z,10.23
2018-07-21T00:31:49.002Z,9.50
2018-07-21T00:34:18.712Z,9.57
2018-07-21T00:36:48.422Z,9.43
2018-07-21T00:39:18.146Z,9.87
2018-07-21T00:41:47.893Z,9.63
2018-07-21T00:44:17.770Z,9.70
2018-07-21T00:46:47.809Z,10.10
2018-07-21T00:49:18.020Z,10.23
2018-07-21T00:51:47.726Z,10.80
2018-07-21T00:54:17.484Z,9.50
2018-07-21T00:56:47.230Z,10.33
2018-07-21T00:59:17.182Z,9.57
2018-07-21T01:01:46.932Z,10.07
2018-07-21T01:04:16.644Z,10.03
2018-07-21T01:06:46.880Z,9.97
2018-07-21T01:09:17.108Z,10.10
2018-07-21T01:11:47.003Z,9.70
2018-07-21T01:14:17.010Z,10.43
2018-07-21T01:16:46.777Z,10.13
2018-07-21T01:19:16.626Z,9.37
2018-07-21T01:21:46.512Z,10.23
2018-07-21T01:24:16.331Z,10.23
2018-07-21T01:26:46.248Z,10.30
2018-07-21T01:29:16.193Z,11.07
2018-07-21T01:31:45.959Z,11.43
2018-07-21T01:34:15.678Z,10.50
2018-07-21T01:36:45.570Z,10.97
2018-07-21T01:39:15.418Z,11.37
2018-07-21T01:41:45.324Z,11.23
2018-07-21T01:44:15.142Z,11.13
2018-07-21T01:46:45.194Z,11.00
2018-07-21T01:49:15.034Z,11.13
2018-07-21T01:51:44.789Z,10.93
2018-07-21T01:54:14.510Z,11.07
2018-07-21T01:56:44.293Z,10.73
2018-07-21T01:59:14.220Z,10.87
2018-07-21T02:01:44.281Z,10.90
2018-07-21T02:04:14.133Z,11.30
2018-07-21T02:06:44.066Z,10.70
2018-07-21T02:09:13.940Z,11.27
2018-07-21T02:11:43.930Z,11.83
2018-07-21T02:14:13.889Z,11.63
2018-07-21T02:16:43.763Z,12.17
2018-07-21T02:19:13.934Z,12.47
2018-07-21T02:21:43.758Z,14.87
2018-07-21T02:24:13.625Z,15.50
2018-07-21T02:26:43.450Z,16.80
2018-07-21T02:29:13.624Z,15.50
2018-07-21T02:31:43.362Z,14.10
2018-07-21T02:34:13.112Z,13.50
2018-07-21T02:36:42.903Z,32.73
2018-07-21T02:39:13.209Z,30.77
2018-07-21T02:41:43.198Z,26.87
2018-07-21T02:44:13.161Z,29.17
2018-07-21T02:46:43.325Z,28.03
2018-07-21T02:49:13.021Z,26.60
2018-07-21T02:51:42.791Z,19.07
2018-07-21T02:54:12.803Z,18.60
2018-07-21T02:56:42.626Z,15.17
2018-07-21T02:59:12.504Z,15.07
2018-07-21T03:01:42.295Z,14.60
2018-07-21T03:04:12.432Z,13.83
2018-07-21T03:06:42.510Z,14.13
2018-07-21T03:09:13.265Z,14.47
2018-07-21T03:11:43.031Z,13.60
2018-07-21T03:14:12.869Z,13.67
2018-07-21T03:16:42.883Z,13.67
2018-07-21T03:19:12.755Z,12.83
2018-07-21T03:21:42.649Z,13.23
2018-07-21T03:24:12.446Z,13.27
2018-07-21T03:26:42.461Z,12.60
2018-07-21T03:29:12.788Z,14.47
2018-07-21T03:31:42.725Z,13.63
2018-07-21T03:34:12.483Z,13.30
2018-07-21T03:36:42.783Z,13.00
2018-07-21T03:39:13.061Z,13.10
2018-07-21T03:41:43.050Z,14.33
2018-07-21T03:44:13.503Z,12.07
2018-07-21T03:46:43.259Z,12.43
2018-07-21T03:49:13.382Z,11.83
2018-07-21T03:51:43.111Z,11.20
2018-07-21T03:54:12.822Z,9.37
2018-07-21T03:56:42.586Z,9.13
2018-07-21T03:59:12.654Z,8.87
2018-07-21T04:01:42.678Z,8.70
2018-07-21T04:04:12.449Z,8.63
2018-07-21T04:06:42.251Z,8.30
2018-07-21T04:09:12.430Z,8.67
2018-07-21T04:11:42.125Z,8.20
2018-07-21T04:14:11.804Z,7.77
2018-07-21T04:16:41.547Z,7.67
2018-07-21T04:19:11.565Z,7.70
2018-07-21T04:21:41.478Z,7.67
2018-07-21T04:24:11.223Z,8.63
2018-07-21T04:26:40.992Z,8.40
2018-07-21T04:29:10.908Z,8.80
2018-07-21T04:31:40.712Z,9.67
2018-07-21T04:34:10.993Z,9.60
2018-07-21T04:36:40.799Z,9.03
2018-07-21T04:39:11.826Z,9.77
2018-07-21T04:41:42.112Z,9.70
2018-07-21T04:44:12.207Z,9.63
2018-07-21T04:46:41.893Z,9.83
2018-07-21T04:49:11.603Z,9.30
2018-07-21T04:51:41.362Z,9.60
2018-07-21T04:54:11.275Z,9.27
2018-07-21T04:56:41.207Z,9.07
2018-07-21T04:59:10.964Z,9.63
2018-07-21T05:01:40.703Z,8.67
2018-07-21T05:04:10.527Z,8.67
2018-07-21T05:06:41.123Z,9.23
2018-07-21T05:09:12.407Z,8.37
2018-07-21T05:11:42.332Z,9.60
2018-07-21T05:14:12.172Z,8.67
2018-07-21T05:16:42.387Z,9.10
2018-07-21T05:19:12.453Z,9.17
2018-07-21T05:21:42.263Z,8.10
2018-07-21T05:24:12.091Z,8.70
2018-07-21T05:26:41.780Z,8.40
2018-07-21T05:29:11.510Z,8.63
2018-07-21T05:31:41.216Z,8.57
2018-07-21T05:34:10.906Z,8.20
2018-07-21T05:36:40.702Z,8.33
2018-07-21T05:39:11.236Z,7.77
2018-07-21T05:41:41.880Z,8.47
2018-07-21T05:44:11.603Z,8.23
2018-07-21T05:46:41.776Z,8.60
2018-07-21T05:49:11.873Z,7.70
2018-07-21T05:51:41.789Z,8.67
2018-07-21T05:54:11.492Z,7.33
2018-07-21T05:56:41.466Z,7.90
2018-07-21T05:59:11.186Z,8.13
2018-07-21T06:01:40.921Z,8.20
2018-07-21T06:04:10.716Z,9.60
2018-07-21T06:06:40.479Z,7.40
2018-07-21T06:09:11.542Z,8.23
2018-07-21T06:11:41.708Z,8.17
2018-07-21T06:14:12.093Z,8.33
2018-07-21T06:16:41.949Z,8.37
2018-07-21T06:19:11.903Z,9.13
2018-07-21T06:21:41.603Z,8.90
2018-07-21T06:24:11.304Z,8.50
2018-07-21T06:26:41.262Z,7.97
2018-07-21T06:29:10.998Z,9.10
2018-07-21T06:31:40.694Z,8.17
2018-07-21T06:34:10.618Z,8.10
2018-07-21T06:36:40.319Z,7.27
2018-07-21T06:39:11.657Z,7.53
2018-07-21T06:41:41.876Z,7.20
2018-07-21T06:44:11.797Z,7.30
2018-07-21T06:46:41.721Z,6.70
2018-07-21T06:49:11.536Z,6.50
2018-07-21T06:51:41.660Z,5.50
2018-07-21T06:54:11.390Z,5.83
2018-07-21T06:56:41.333Z,5.40
2018-07-21T06:59:11.092Z,4.97
2018-07-21T07:01:40.766Z,5.30
2018-07-21T07:04:10.550Z,4.70
2018-07-21T07:06:40.323Z,6.80
2018-07-21T07:09:11.432Z,4.83
2018-07-21T07:11:41.267Z,5.13
2018-07-21T07:14:11.120Z,5.50
2018-07-21T07:16:41.102Z,4.30
2018-07-21T07:19:10.825Z,4.67
2018-07-21T07:21:40.619Z,4.40
2018-07-21T07:24:10.378Z,5.53
2018-07-21T07:26:40.051Z,4.73
2018-07-21T07:29:10.066Z,5.57
2018-07-21T07:31:39.768Z,4.83
2018-07-21T07:34:09.535Z,5.30
2018-07-21T07:36:39.279Z,5.57
2018-07-21T07:39:10.226Z,5.50
2018-07-21T07:41:40.504Z,4.87
2018-07-21T07:44:10.229Z,4.70
2018-07-21T07:46:40.520Z,4.80
2018-07-21T07:49:10.315Z,4.60
2018-07-21T07:51:40.033Z,4.47
2018-07-21T07:54:09.811Z,5.67
2018-07-21T07:56:39.517Z,4.77
2018-07-21T07:59:09.419Z,5.30
2018-07-21T08:01:39.170Z,4.53
2018-07-21T08:04:08.976Z,4.80
2018-07-21T08:06:38.697Z,4.87
2018-07-21T08:09:10.697Z,5.07
2018-07-21T08:11:41.038Z,4.50
2018-07-21T08:14:10.752Z,7.00
2018-07-21T08:16:40.551Z,5.63
2018-07-21T08:19:10.383Z,5.80
2018-07-21T08:21:40.177Z,4.30
2018-07-21T08:24:10.402Z,4.50
2018-07-21T08:26:40.222Z,4.30
2018-07-21T08:29:10.092Z,5.40
2018-07-21T08:31:40.089Z,4.47
2018-07-21T08:34:10.109Z,4.50
2018-07-21T08:36:39.868Z,3.70
2018-07-21T08:39:10.978Z,5.43
2018-07-21T08:41:40.764Z,7.43
2018-07-21T08:44:10.758Z,6.70
2018-07-21T08:46:40.878Z,4.27
2018-07-21T08:49:10.620Z,4.00
2018-07-21T08:51:40.453Z,5.90
2018-07-21T08:54:10.329Z,4.90
2018-07-21T08:56:40.081Z,4.90
2018-07-21T08:59:10.079Z,4.00
2018-07-21T09:01:39.752Z,4.63
2018-07-21T09:04:09.451Z,4.40
2018-07-21T09:06:39.252Z,5.77
2018-07-21T09:09:11.133Z,5.80
2018-07-21T09:11:41.700Z,5.30
2018-07-21T09:14:11.486Z,4.97
2018-07-21T09:16:41.345Z,4.60
2018-07-21T09:19:11.028Z,4.47
2018-07-21T09:21:41.056Z,4.80
2018-07-21T09:24:10.843Z,4.57
2018-07-21T09:26:40.589Z,5.60
2018-07-21T09:29:10.325Z,5.40
2018-07-21T09:31:40.290Z,5.87
2018-07-21T09:34:10.080Z,4.60
2018-07-21T09:36:39.787Z,4.30
2018-07-21T09:39:10.970Z,3.93
2018-07-21T09:41:40.890Z,4.23
2018-07-21T09:44:10.615Z,4.33
2018-07-21T09:46:40.583Z,3.93
2018-07-21T09:49:10.410Z,4.33
2018-07-21T09:51:40.114Z,9.70
2018-07-21T09:54:10.054Z,5.83
2018-07-21T09:56:39.918Z,5.20
2018-07-21T09:59:09.626Z,6.73
2018-07-21T10:01:39.658Z,4.30
2018-07-21T10:04:09.352Z,5.43
2018-07-21T10:06:39.137Z,5.20
2018-07-21T10:09:10.013Z,4.40
2018-07-21T10:11:39.944Z,4.80
2018-07-21T10:14:10.041Z,5.07
2018-07-21T10:16:39.807Z,5.10
2018-07-21T10:19:09.751Z,4.63
2018-07-21T10:21:39.658Z,4.33
2018-07-21T10:24:14.484Z,6.83
2018-07-21T10:26:49.508Z,4.57
2018-07-21T10:29:19.247Z,4.77
2018-07-21T10:31:49.044Z,4.80
2018-07-21T10:34:18.733Z,4.50
2018-07-21T10:36:48.528Z,4.30
2018-07-21T10:39:18.259Z,4.57
2018-07-21T10:41:48.002Z,4.30
2018-07-21T10:44:17.833Z,4.40
2018-07-21T10:46:47.594Z,5.17
2018-07-21T10:49:17.383Z,4.70
2018-07-21T10:51:47.137Z,4.33
2018-07-21T10:54:16.826Z,4.40
2018-07-21T10:56:46.688Z,4.90
2018-07-21T10:59:16.384Z,4.63
2018-07-21T11:01:46.327Z,4.80
2018-07-21T11:04:16.656Z,5.03
2018-07-21T11:06:46.577Z,4.43
2018-07-21T11:09:16.498Z,4.63
2018-07-21T11:11:46.498Z,4.63
2018-07-21T11:14:16.289Z,9.83
2018-07-21T11:16:46.027Z,4.53
2018-07-21T11:19:15.833Z,4.50
2018-07-21T11:21:45.824Z,4.53
2018-07-21T11:24:15.779Z,5.20
2018-07-21T11:26:45.561Z,4.90
2018-07-21T11:29:15.241Z,4.73
2018-07-21T11:31:45.312Z,4.90
2018-07-21T11:34:15.118Z,4.63
2018-07-21T11:36:45.060Z,4.40
2018-07-21T11:39:14.776Z,4.60
2018-07-21T11:41:44.493Z,5.20
2018-07-21T11:44:14.655Z,4.90
2018-07-21T11:46:44.464Z,4.63
2018-07-21T11:49:14.524Z,4.33
2018-07-21T11:51:44.316Z,4.43
2018-07-21T11:54:14.148Z,4.33
2018-07-21T11:56:43.906Z,4.60
2018-07-21T11:59:14.915Z,4.70
2018-07-21T12:01:44.974Z,4.13
2018-07-21T12:04:15.614Z,4.47
2018-07-21T12:06:45.328Z,3.90
2018-07-21T12:09:15.103Z,4.43
2018-07-21T12:11:44.858Z,4.73
2018-07-21T12:14:14.598Z,5.23
2018-07-21T12:16:44.555Z,4.60
2018-07-21T12:19:14.453Z,4.97
2018-07-21T12:21:44.415Z,5.43
2018-07-21T12:24:14.184Z,4.90
2018-07-21T12:26:43.890Z,6.20
2018-07-21T12:29:13.741Z,5.67
2018-07-21T12:31:43.606Z,5.53
2018-07-21T12:34:13.384Z,5.33
2018-07-21T12:36:43.086Z,5.40
2018-07-21T12:39:12.833Z,5.77
2018-07-21T12:41:42.608Z,5.87
2018-07-21T12:44:12.672Z,5.93
2018-07-21T12:46:42.430Z,5.60
2018-07-21T12:49:12.278Z,5.90
2018-07-21T12:51:41.957Z,6.17
2018-07-21T12:54:11.748Z,5.63
2018-07-21T12:56:41.491Z,5.27
2018-07-21T12:59:12.230Z,5.60
2018-07-21T13:01:42.239Z,5.53
2018-07-21T13:04:11.976Z,5.47
2018-07-21T13:06:41.995Z,5.30
2018-07-21T13:09:12.900Z,5.50
2018-07-21T13:11:42.890Z,4.90
2018-07-21T13:14:12.572Z,5.20
2018-07-21T13:16:42.381Z,5.40
2018-07-21T13:19:12.082Z,5.30
2018-07-21T13:21:41.918Z,6.00
2018-07-21T13:24:11.661Z,5.43
2018-07-21T13:26:41.366Z,5.50
2018-07-21T13:29:11.077Z,5.70
2018-07-21T13:31:41.039Z,5.60
2018-07-21T13:34:10.770Z,5.80
2018-07-21T13:36:40.513Z,6.30
2018-07-21T13:39:12.033Z,6.67
2018-07-21T13:41:42.135Z,6.53
2018-07-21T13:44:11.940Z,6.77
2018-07-21T13:46:41.688Z,6.90
2018-07-21T13:49:11.424Z,7.00
2018-07-21T13:51:41.123Z,6.73
2018-07-21T13:54:11.024Z,6.27
2018-07-21T13:56:40.846Z,7.00
2018-07-21T13:59:10.570Z,6.67
2018-07-21T14:01:40.274Z,6.90
2018-07-21T14:04:10.009Z,7.27
2018-07-21T14:06:40.879Z,6.23
2018-07-21T14:09:10.792Z,6.70
2018-07-21T14:11:40.571Z,6.67
2018-07-21T14:14:10.370Z,6.83
2018-07-21T14:16:40.312Z,7.10
2018-07-21T14:19:10.193Z,7.50
2018-07-21T14:21:40.312Z,7.27
2018-07-21T14:24:10.189Z,7.40
2018-07-21T14:26:39.994Z,6.77
2018-07-21T14:29:09.729Z,6.77
2018-07-21T14:31:39.715Z,7.50
2018-07-21T14:34:09.493Z,6.83
2018-07-21T14:36:39.265Z,7.10
2018-07-21T14:39:10.438Z,6.87
2018-07-21T14:41:40.952Z,6.97
2018-07-21T14:44:11.446Z,6.90
2018-07-21T14:46:42.102Z,6.77
2018-07-21T14:49:12.244Z,7.10
2018-07-21T14:51:42.090Z,6.90
2018-07-21T14:54:11.765Z,7.00
2018-07-21T14:56:41.662Z,7.47
2018-07-21T14:59:11.367Z,7.00
2018-07-21T15:01:41.173Z,7.57
2018-07-21T15:04:10.918Z,8.60
2018-07-21T15:06:41.293Z,7.53
2018-07-21T15:09:12.110Z,7.53
2018-07-21T15:11:41.949Z,7.13
2018-07-21T15:14:11.718Z,7.40
2018-07-21T15:16:41.524Z,7.67
2018-07-21T15:19:11.384Z,7.50
2018-07-21T15:21:41.195Z,6.47
2018-07-21T15:24:11.046Z,7.13
2018-07-21T15:26:40.793Z,6.93
2018-07-21T15:29:10.538Z,7.33
2018-07-21T15:31:40.342Z,6.93
2018-07-21T15:34:10.134Z,6.50
2018-07-21T15:36:39.916Z,7.00
2018-07-21T15:39:10.138Z,7.83
2018-07-21T15:41:40.473Z,6.83
2018-07-21T15:44:10.394Z,7.40
2018-07-21T15:46:40.195Z,6.60
2018-07-21T15:49:10.439Z,7.57
2018-07-21T15:51:40.190Z,7.60
2018-07-21T15:54:10.001Z,7.87
2018-07-21T15:56:39.744Z,8.60
2018-07-21T15:59:09.507Z,8.27
2018-07-21T16:01:39.297Z,9.47
2018-07-21T16:04:09.062Z,9.20
2018-07-21T16:06:38.750Z,8.63
2018-07-21T16:09:10.034Z,9.40
2018-07-21T16:11:40.113Z,9.53
2018-07-21T16:14:10.000Z,10.43
2018-07-21T16:16:39.890Z,10.13
2018-07-21T16:19:09.593Z,10.43
2018-07-21T16:21:39.508Z,10.27
2018-07-21T16:24:09.188Z,10.43
2018-07-21T16:26:38.896Z,10.97
2018-07-21T16:29:08.936Z,11.00
2018-07-21T16:31:38.614Z,11.10
2018-07-21T16:34:08.401Z,11.73
2018-07-21T16:36:38.123Z,11.20
2018-07-21T16:39:09.657Z,10.67
2018-07-21T16:41:39.400Z,9.70
2018-07-21T16:44:09.127Z,10.40
2018-07-21T16:46:38.811Z,10.90
2018-07-21T16:49:08.537Z,11.10
2018-07-21T16:51:38.377Z,11.00
2018-07-21T16:54:08.156Z,10.63
2018-07-21T16:56:38.029Z,10.07
2018-07-21T16:59:07.734Z,10.67
2018-07-21T17:01:37.482Z,10.00
2018-07-21T17:04:07.208Z,10.00
2018-07-21T17:06:36.997Z,9.50
2018-07-21T17:09:08.850Z,9.17
2018-07-21T17:11:38.695Z,9.83
2018-07-21T17:14:09.399Z,9.43
2018-07-21T17:16:39.168Z,9.47
2018-07-21T17:19:08.952Z,10.47
2018-07-21T17:21:38.692Z,10.07
2018-07-21T17:24:08.554Z,9.47
2018-07-21T17:26:38.649Z,10.10
2018-07-21T17:29:09.383Z,9.67
2018-07-21T17:31:39.190Z,10.30
2018-07-21T17:34:08.974Z,10.60
2018-07-21T17:36:38.786Z,10.50
2018-07-21T17:39:09.599Z,11.33
2018-07-21T17:41:39.348Z,11.80
2018-07-21T17:44:09.543Z,11.30
2018-07-21T17:46:39.877Z,11.07
2018-07-21T17:49:09.599Z,12.00
2018-07-21T17:51:39.339Z,12.07
2018-07-21T17:54:09.383Z,11.83
2018-07-21T17:56:39.155Z,12.67
2018-07-21T17:59:08.847Z,12.27
2018-07-21T18:01:38.539Z,11.57
2018-07-21T18:04:08.555Z,12.20
2018-07-21T18:06:38.308Z,12.77
2018-07-21T18:09:08.910Z,12.50
2018-07-21T18:11:38.918Z,11.90
2018-07-21T18:14:09.051Z,12.73
2018-07-21T18:16:39.106Z,14.07
2018-07-21T18:19:08.827Z,13.30
2018-07-21T18:21:38.718Z,12.53
2018-07-21T18:24:08.561Z,14.17
2018-07-21T18:26:38.265Z,13.77
2018-07-21T18:29:08.137Z,15.73
2018-07-21T18:31:37.911Z,15.67
2018-07-21T18:34:08.361Z,14.47
2018-07-21T18:36:38.065Z,13.73
2018-07-21T18:39:09.856Z,11.93
2018-07-21T18:41:39.600Z,13.13
2018-07-21T18:44:09.554Z,12.47
2018-07-21T18:46:39.341Z,13.80
2018-07-21T18:49:09.060Z,13.93
2018-07-21T18:51:38.930Z,19.43
2018-07-21T18:54:08.649Z,14.10
2018-07-21T18:56:38.518Z,14.50
2018-07-21T18:59:08.272Z,14.03
2018-07-21T19:01:38.034Z,13.80
2018-07-21T19:04:07.772Z,16.30
2018-07-21T19:06:37.463Z,14.17
2018-07-21T19:09:09.485Z,12.83
2018-07-21T19:11:39.261Z,14.67
2018-07-21T19:14:09.530Z,14.27
2018-07-21T19:16:41.370Z,14.13
2018-07-21T19:19:11.115Z,21.23
2018-07-21T19:21:40.815Z,17.10
2018-07-21T19:24:10.531Z,15.57
2018-07-21T19:26:45.502Z,13.77
2018-07-21T19:29:15.306Z,15.13
2018-07-21T19:31:50.217Z,14.00
2018-07-21T19:34:19.924Z,15.00
2018-07-21T19:36:49.641Z,13.63
2018-07-21T19:39:19.347Z,15.20
2018-07-21T19:41:54.232Z,14.70
2018-07-21T19:44:24.009Z,16.27
2018-07-21T19:46:53.795Z,15.43
2018-07-21T19:49:23.663Z,14.10
2018-07-21T19:51:53.491Z,15.43
2018-07-21T19:54:23.435Z,16.13
2018-07-21T19:56:53.160Z,15.37
2018-07-21T19:59:22.929Z,16.17
2018-07-21T20:01:52.680Z,15.20
2018-07-21T20:04:22.463Z,15.93
2018-07-21T20:06:52.226Z,18.40
2018-07-21T20:09:22.109Z,18.47
2018-07-21T20:11:51.937Z,17.80
2018-07-21T20:14:22.081Z,15.33
2018-07-21T20:16:51.812Z,21.40
2018-07-21T20:19:21.550Z,15.57
2018-07-21T20:21:51.241Z,16.13
2018-07-21T20:24:21.056Z,15.13
2018-07-21T20:26:50.798Z,15.13
2018-07-21T20:29:20.513Z,15.77
2018-07-21T20:31:50.223Z,17.53
2018-07-21T20:34:19.927Z,96.50
2018-07-21T20:36:49.919Z,20.77
2018-07-21T20:39:19.637Z,19.77
2018-07-21T20:41:49.483Z,18.23
2018-07-21T20:44:19.243Z,18.20
2018-07-21T20:46:49.239Z,18.13
2018-07-21T20:49:18.960Z,18.13
2018-07-21T20:51:48.868Z,19.07
2018-07-21T20:54:18.765Z,16.17
2018-07-21T20:56:48.511Z,16.93
2018-07-21T20:59:18.228Z,18.00
2018-07-21T21:01:48.023Z,17.67
2018-07-21T21:04:17.816Z,16.37
2018-07-21T21:06:47.517Z,17.50
2018-07-21T21:09:17.572Z,16.63
2018-07-21T21:11:47.492Z,16.57
2018-07-21T21:14:18.064Z,17.80
2018-07-21T21:16:48.180Z,17.70
2018-07-21T21:19:18.051Z,18.27
2018-07-21T21:21:47.864Z,19.73
2018-07-21T21:24:17.629Z,17.73
2018-07-21T21:26:47.444Z,17.67
2018-07-21T21:29:17.157Z,17.67
2018-07-21T21:31:46.896Z,17.97
2018-07-21T21:34:16.617Z,17.60
2018-07-21T21:36:46.364Z,18.57
2018-07-21T21:39:16.155Z,17.67
2018-07-21T21:41:45.925Z,17.50
2018-07-21T21:44:15.661Z,16.87
2018-07-21T21:46:45.389Z,17.90
2018-07-21T21:49:15.142Z,17.17
2018-07-21T21:51:44.912Z,17.00
2018-07-21T21:54:14.604Z,18.07
2018-07-21T21:56:44.386Z,16.57
2018-07-21T21:59:14.128Z,17.73
2018-07-21T22:01:43.841Z,17.70
2018-07-21T22:04:13.815Z,19.63
2018-07-21T22:06:43.564Z,18.47
2018-07-21T22:09:13.376Z,18.73
2018-07-21T22:11:43.095Z,19.57
2018-07-21T22:14:12.823Z,17.80
2018-07-21T22:16:42.585Z,17.53
2018-07-21T22:19:12.600Z,18.63
2018-07-21T22:21:42.458Z,20.47
2018-07-21T22:24:12.187Z,21.10
2018-07-21T22:26:41.937Z,20.40
2018-07-21T22:29:11.697Z,18.30
2018-07-21T22:31:41.424Z,17.83
2018-07-21T22:34:11.428Z,18.83
2018-07-21T22:36:41.236Z,16.90
2018-07-21T22:39:12.164Z,19.47
2018-07-21T22:41:42.147Z,19.60
2018-07-21T22:44:11.907Z,19.43
2018-07-21T22:46:41.821Z,18.60
2018-07-21T22:49:11.581Z,17.93
2018-07-21T22:51:41.365Z,19.93
2018-07-21T22:54:11.109Z,19.07
2018-07-21T22:56:40.975Z,20.13
2018-07-21T22:59:10.681Z,21.57
2018-07-21T23:01:40.896Z,20.33
2018-07-21T23:04:10.913Z,21.37
2018-07-21T23:06:40.941Z,21.80
2018-07-21T23:09:10.912Z,23.33
2018-07-21T23:11:40.681Z,25.83
2018-07-21T23:14:10.515Z,26.30
2018-07-21T23:16:40.430Z,23.37
2018-07-21T23:19:10.187Z,25.23
2018-07-21T23:21:39.880Z,25.77
2018-07-21T23:24:10.410Z,26.67
2018-07-21T23:26:40.224Z,26.50
2018-07-21T23:29:09.982Z,26.33
2018-07-21T23:31:39.792Z,25.50
2018-07-21T23:34:09.841Z,25.27
2018-07-21T23:36:39.530Z,26.87
2018-07-21T23:39:10.877Z,25.93
2018-07-21T23:41:40.590Z,27.03
2018-07-21T23:44:10.742Z,25.93
2018-07-21T23:46:40.493Z,26.60
2018-07-21T23:49:10.293Z,27.63
2018-07-21T23:51:40.018Z,26.97
2018-07-21T23:54:09.787Z,28.47
2018-07-21T23:56:39.620Z,27.27
2018-07-21T23:59:09.559Z,26.47
